Richard Maersk — OYIZ2 — position and weather

sailwx.info

Track history (hours):
 
Tides and Currents Weather Stations Pressure Air Temp Water Temp Dewpoint Dewpoint Depression Visibility Wind Speed Wind Dir Waves Ship Positions

Richard Maersk

Last reported at 2015-Aug-22 18:32 UTC. Time now 2015-Sep-03 02:29 UTC.
Position N 01°14' E 103°58'.
Warning: this ship's position is 11 days out of date.

Length 171 m; draft 6.7 m.

Type: Ship (hazmat cat A). MMSI: 219967000.

Date/timePositionNaut miles runAvg speedWind from/ knotsBaromVisibWave heightAir tempDewpointWater temp
2015-Aug-22 18:32N 01°14' E 103°58'1010.5
2015-Aug-22 17:33N 01°12' E 103°48'7 1.8
2015-Aug-22 13:30N 01°15' E 103°41'0 0.0
2015-Aug-22 07:03N 01°15' E 103°41'0 0.0
2015-Aug-22 06:33N 01°15' E 103°41'4 0.1
2015-Aug-20 23:20N 01°11' E 103°42'  
2015-Aug-17 23:32N 01°36' E 103°01'20 6.1
2015-Aug-17 20:13N 01°23' E 103°16'8 5.1
2015-Aug-17 18:33N 01°17' E 103°22'16 4.8
2015-Aug-17 15:08N 01°12' E 103°37'3 5.7
2015-Aug-17 14:32N 01°11' E 103°40'8 7.9
2015-Aug-17 13:33N 01°11' E 103°48'10 9.9
2015-Aug-17 12:33N 01°15' E 103°57'9 9.4
2015-Aug-17 11:33N 01°17' E 104°06'  
Track history (hours):
 
Tides and Currents Weather Stations Pressure Air Temp Water Temp Dewpoint Dewpoint Depression Visibility Wind Speed Wind Dir Waves Ship Positions

Richard Maersk

Last reported at 2015-Aug-22 18:32 UTC. Time now 2015-Sep-03 02:29 UTC.
Position N 01°14' E 103°58'.
Warning: this ship's position is 11 days out of date.

Length 171 m; draft 6.7 m.

Type: Ship (hazmat cat A). MMSI: 219967000.

Date/timePositionNaut miles runAvg speedWind from/ knotsBaromVisibWave heightAir tempDewpointWater temp
2015-Aug-22 18:32N 01°14' E 103°58'1010.5
2015-Aug-22 17:33N 01°12' E 103°48'7 1.8
2015-Aug-22 13:30N 01°15' E 103°41'0 0.0
2015-Aug-22 07:03N 01°15' E 103°41'0 0.0
2015-Aug-22 06:33N 01°15' E 103°41'4 0.1
2015-Aug-20 23:20N 01°11' E 103°42'  
2015-Aug-17 23:32N 01°36' E 103°01'20 6.1
2015-Aug-17 20:13N 01°23' E 103°16'8 5.1
2015-Aug-17 18:33N 01°17' E 103°22'16 4.8
2015-Aug-17 15:08N 01°12' E 103°37'3 5.7
2015-Aug-17 14:32N 01°11' E 103°40'8 7.9
2015-Aug-17 13:33N 01°11' E 103°48'10 9.9
2015-Aug-17 12:33N 01°15' E 103°57'9 9.4
2015-Aug-17 11:33N 01°17' E 104°06'  

Dump ship's entire track history